createdAt,value
2022-09-11T00:00:54.598Z,3.63
2022-09-11T00:03:23.401Z,3.50
2022-09-11T00:05:50.459Z,3.28
2022-09-11T00:08:19.043Z,3.63
2022-09-11T00:10:48.442Z,3.40
2022-09-11T00:13:21.615Z,4.68
2022-09-11T00:15:51.930Z,4.13
2022-09-11T00:18:24.011Z,4.50
2022-09-11T00:20:55.325Z,4.28
2022-09-11T00:23:23.809Z,4.10
2022-09-11T00:25:50.364Z,4.05
2022-09-11T00:28:21.304Z,4.70
2022-09-11T00:31:17.303Z,4.20
2022-09-11T00:33:44.837Z,4.82
2022-09-11T00:36:18.190Z,4.30
2022-09-11T00:38:46.384Z,4.30
2022-09-11T00:41:18.090Z,4.43
2022-09-11T00:44:07.315Z,4.82
2022-09-11T00:46:37.451Z,4.75
2022-09-11T00:49:11.749Z,4.93
2022-09-11T00:51:38.585Z,4.80
2022-09-11T00:54:05.313Z,4.88
2022-09-11T00:56:32.737Z,4.78
2022-09-11T00:58:59.509Z,4.80
2022-09-11T01:01:26.178Z,4.85
2022-09-11T01:03:52.684Z,5.22
2022-09-11T01:06:21.115Z,4.45
2022-09-11T01:08:47.624Z,5.85
2022-09-11T01:11:37.139Z,4.82
2022-09-11T01:14:11.496Z,4.97
2022-09-11T01:16:44.369Z,5.43
2022-09-11T01:19:52.678Z,5.25
2022-09-11T01:22:48.271Z,4.93
2022-09-11T01:25:46.041Z,5.50
2022-09-11T01:28:16.210Z,5.78
2022-09-11T01:30:48.792Z,5.68
2022-09-11T01:33:23.327Z,5.05
2022-09-11T01:36:28.981Z,4.88
2022-09-11T01:39:02.252Z,4.63
2022-09-11T01:41:33.576Z,5.20
2022-09-11T01:44:07.183Z,4.78
2022-09-11T01:46:41.124Z,4.53
2022-09-11T01:49:11.719Z,5.70
2022-09-11T01:51:40.292Z,5.22
2022-09-11T01:54:29.499Z,5.15
2022-09-11T01:57:02.557Z,5.95
2022-09-11T01:59:47.183Z,5.65
2022-09-11T02:02:18.586Z,5.35
2022-09-11T02:04:53.596Z,5.78
2022-09-11T02:07:25.313Z,5.05
2022-09-11T02:09:55.521Z,5.45
2022-09-11T02:12:28.467Z,4.85
2022-09-11T02:14:55.617Z,5.15
2022-09-11T02:17:31.665Z,5.32
2022-09-11T02:19:59.783Z,4.53
2022-09-11T02:22:26.897Z,4.78
2022-09-11T02:24:53.735Z,4.72
2022-09-11T02:27:27.458Z,4.82
2022-09-11T02:29:55.151Z,4.68
2022-09-11T02:32:26.985Z,4.90
2022-09-11T02:34:55.514Z,4.38
2022-09-11T02:37:32.218Z,4.15
2022-09-11T02:40:12.899Z,4.13
2022-09-11T02:42:53.047Z,4.10
2022-09-11T02:45:56.197Z,4.10
2022-09-11T02:48:51.038Z,3.88
2022-09-11T02:51:40.034Z,3.92
2022-09-11T02:54:30.397Z,3.60
2022-09-11T02:57:06.026Z,3.92
2022-09-11T02:59:38.329Z,4.28
2022-09-11T03:02:10.474Z,3.95
2022-09-11T03:04:37.345Z,4.20
2022-09-11T03:07:03.958Z,3.80
2022-09-11T03:09:30.594Z,3.83
2022-09-11T03:11:57.125Z,3.53
2022-09-11T03:14:23.659Z,4.60
2022-09-11T03:16:50.384Z,3.97
2022-09-11T03:19:16.896Z,4.30
2022-09-11T03:21:43.539Z,5.90
2022-09-11T03:24:10.231Z,5.13
2022-09-11T03:26:37.212Z,5.70
2022-09-11T03:29:04.240Z,5.03
2022-09-11T03:31:31.008Z,5.97
2022-09-11T03:33:57.892Z,7.43
2022-09-11T03:36:24.738Z,7.93
2022-09-11T03:38:51.271Z,8.48
2022-09-11T03:41:17.884Z,10.70
2022-09-11T03:43:44.526Z,9.73
2022-09-11T03:46:11.108Z,9.23
2022-09-11T03:48:37.596Z,10.18
2022-09-11T03:51:05.955Z,10.85
2022-09-11T03:53:33.126Z,10.25
2022-09-11T03:56:00.452Z,11.40
2022-09-11T03:58:27.031Z,11.73
2022-09-11T04:00:53.541Z,10.60
2022-09-11T04:03:20.055Z,11.07
2022-09-11T04:05:59.996Z,10.95
2022-09-11T04:08:26.800Z,10.77
2022-09-11T04:10:57.948Z,10.40
2022-09-11T04:13:32.425Z,10.73
2022-09-11T04:16:07.180Z,10.85
2022-09-11T04:18:36.490Z,11.57
2022-09-11T04:21:07.407Z,10.82
2022-09-11T04:23:34.248Z,11.07
2022-09-11T04:26:01.243Z,11.65
2022-09-11T04:28:28.666Z,12.00
2022-09-11T04:30:57.178Z,12.02
2022-09-11T04:33:26.639Z,12.27
2022-09-11T04:35:53.140Z,12.50
2022-09-11T04:38:19.662Z,13.07
2022-09-11T04:40:46.158Z,12.70
2022-09-11T04:43:12.739Z,11.93
2022-09-11T04:45:40.602Z,11.82
2022-09-11T04:48:07.608Z,13.38
2022-09-11T04:50:34.118Z,11.45
2022-09-11T04:53:00.766Z,13.95
2022-09-11T04:55:27.294Z,13.23
2022-09-11T04:57:54.104Z,12.63
2022-09-11T05:00:20.905Z,13.07
2022-09-11T05:02:47.883Z,13.23
2022-09-11T05:05:14.396Z,14.52
2022-09-11T05:07:40.932Z,12.25
2022-09-11T05:10:08.405Z,13.10
2022-09-11T05:12:34.930Z,12.75
2022-09-11T05:15:01.398Z,12.40
2022-09-11T05:17:27.963Z,12.98
2022-09-11T05:19:54.532Z,13.43
2022-09-11T05:22:21.059Z,13.23
2022-09-11T05:24:47.664Z,15.63
2022-09-11T05:27:14.238Z,14.55
2022-09-11T05:29:41.995Z,15.20
2022-09-11T05:32:08.453Z,14.40
2022-09-11T05:34:34.997Z,14.35
2022-09-11T05:37:02.395Z,14.48
2022-09-11T05:39:29.029Z,14.57
2022-09-11T05:41:55.500Z,15.50
2022-09-11T05:44:21.999Z,16.35
2022-09-11T05:46:48.850Z,15.10
2022-09-11T05:49:16.059Z,14.82
2022-09-11T05:51:42.596Z,15.43
2022-09-11T05:54:09.195Z,17.95
2022-09-11T05:56:35.719Z,16.23
2022-09-11T05:59:02.661Z,16.15
2022-09-11T06:01:29.743Z,16.27
2022-09-11T06:03:56.520Z,16.85
2022-09-11T06:06:23.634Z,15.45
2022-09-11T06:08:51.096Z,16.77
2022-09-11T06:11:18.805Z,16.63
2022-09-11T06:13:46.929Z,16.42
2022-09-11T06:16:18.386Z,15.10
2022-09-11T06:18:49.465Z,16.98
2022-09-11T06:21:20.477Z,16.30
2022-09-11T06:23:48.924Z,16.58
2022-09-11T06:26:17.090Z,17.15
2022-09-11T06:28:43.947Z,15.73
2022-09-11T06:31:16.425Z,15.48
2022-09-11T06:33:43.385Z,15.57
2022-09-11T06:36:12.460Z,14.52
2022-09-11T06:38:39.065Z,16.02
2022-09-11T06:41:09.239Z,15.75
2022-09-11T06:43:35.678Z,15.25
2022-09-11T06:46:12.888Z,15.18
2022-09-11T06:48:40.548Z,14.88
2022-09-11T06:51:08.333Z,14.65
2022-09-11T06:53:34.922Z,14.32
2022-09-11T06:56:05.016Z,13.70
2022-09-11T06:58:31.645Z,13.65
2022-09-11T07:01:10.417Z,13.05
2022-09-11T07:03:37.548Z,13.55
2022-09-11T07:06:04.233Z,14.18
2022-09-11T07:08:30.739Z,14.60
2022-09-11T07:11:03.678Z,15.70
2022-09-11T07:13:34.316Z,13.88
2022-09-11T07:16:05.887Z,13.68
2022-09-11T07:18:36.642Z,13.13
2022-09-11T07:21:11.405Z,12.52
2022-09-11T07:23:38.558Z,13.63
2022-09-11T07:26:08.421Z,13.85
2022-09-11T07:28:35.412Z,13.20
2022-09-11T07:31:20.523Z,13.38
2022-09-11T07:33:48.890Z,13.80
2022-09-11T07:36:17.736Z,13.18
2022-09-11T07:38:46.215Z,12.90
2022-09-11T07:41:14.011Z,13.32
2022-09-11T07:43:42.246Z,12.25
2022-09-11T07:46:10.357Z,12.13
2022-09-11T07:48:38.136Z,12.07
2022-09-11T07:51:08.204Z,12.65
2022-09-11T07:53:37.045Z,12.05
2022-09-11T07:56:09.408Z,12.50
2022-09-11T07:58:38.244Z,12.98
2022-09-11T08:01:06.475Z,11.98
2022-09-11T08:03:34.674Z,12.05
2022-09-11T08:06:02.841Z,11.88
2022-09-11T08:08:30.199Z,13.10
2022-09-11T08:10:57.860Z,11.85
2022-09-11T08:13:25.222Z,12.60
2022-09-11T08:15:51.698Z,12.55
2022-09-11T08:18:18.548Z,11.82
2022-09-11T08:20:45.158Z,11.82
2022-09-11T08:23:12.549Z,10.90
2022-09-11T08:25:39.383Z,11.82
2022-09-11T08:28:06.250Z,11.25
2022-09-11T08:30:33.632Z,10.77
2022-09-11T08:33:01.469Z,11.00
2022-09-11T08:35:27.985Z,12.38
2022-09-11T08:37:55.308Z,11.70
2022-09-11T08:40:21.971Z,11.48
2022-09-11T08:42:48.446Z,10.75
2022-09-11T08:45:17.261Z,11.30
2022-09-11T08:47:52.435Z,10.18
2022-09-11T08:50:40.061Z,10.73
2022-09-11T08:53:12.870Z,10.68
2022-09-11T08:55:49.930Z,10.23
2022-09-11T08:59:10.090Z,10.45
2022-09-11T09:01:55.139Z,9.95
2022-09-11T09:04:43.815Z,9.50
2022-09-11T09:07:20.423Z,9.75
2022-09-11T09:09:46.920Z,8.88
2022-09-11T09:12:39.937Z,8.65
2022-09-11T09:15:31.229Z,8.43
2022-09-11T09:18:02.255Z,9.00
2022-09-11T09:20:34.515Z,8.23
2022-09-11T09:23:07.808Z,8.32
2022-09-11T09:25:37.201Z,8.10
2022-09-11T09:28:20.626Z,8.60
2022-09-11T09:30:58.098Z,8.05
2022-09-11T09:33:31.305Z,8.25
2022-09-11T09:36:03.478Z,8.50
2022-09-11T09:38:31.469Z,8.85
2022-09-11T09:41:13.141Z,7.55
2022-09-11T09:43:57.288Z,8.45
2022-09-11T09:46:46.408Z,8.00
2022-09-11T09:49:23.306Z,8.13
2022-09-11T09:51:51.412Z,7.50
2022-09-11T09:54:19.886Z,7.82
2022-09-11T09:56:53.659Z,7.38
2022-09-11T09:59:26.358Z,7.50
2022-09-11T10:01:55.132Z,7.70
2022-09-11T10:04:27.223Z,7.35
2022-09-11T10:07:21.134Z,7.07
2022-09-11T10:09:50.226Z,7.05
2022-09-11T10:12:20.846Z,7.70
2022-09-11T10:14:53.111Z,7.20
2022-09-11T10:17:40.621Z,7.20
2022-09-11T10:20:15.923Z,7.35
2022-09-11T10:22:42.468Z,6.70
2022-09-11T10:25:12.371Z,6.00
2022-09-11T10:27:56.382Z,7.38
2022-09-11T10:30:33.926Z,6.60
2022-09-11T10:33:03.895Z,7.60
2022-09-11T10:35:31.861Z,7.25
2022-09-11T10:38:18.910Z,6.28
2022-09-11T10:41:19.142Z,6.82
2022-09-11T10:44:04.387Z,7.30
2022-09-11T10:46:39.725Z,6.90
2022-09-11T10:49:06.223Z,6.63
2022-09-11T10:51:38.535Z,6.28
2022-09-11T10:54:18.512Z,6.57
2022-09-11T10:57:13.277Z,7.43
2022-09-11T10:59:58.558Z,6.00
2022-09-11T11:02:31.880Z,6.45
2022-09-11T11:05:01.926Z,6.07
2022-09-11T11:07:50.919Z,5.82
2022-09-11T11:10:42.479Z,6.45
2022-09-11T11:13:39.534Z,5.38
2022-09-11T11:16:27.439Z,6.10
2022-09-11T11:19:00.890Z,5.20
2022-09-11T11:21:55.272Z,5.95
2022-09-11T11:24:36.563Z,4.63
2022-09-11T11:27:39.729Z,4.80
2022-09-11T11:30:21.726Z,4.80
2022-09-11T11:33:08.582Z,4.50
2022-09-11T11:35:36.764Z,4.90
2022-09-11T11:38:37.036Z,4.65
2022-09-11T11:41:08.079Z,4.40
2022-09-11T11:43:39.067Z,4.47
2022-09-11T11:46:15.718Z,5.18
2022-09-11T11:48:54.058Z,4.68
2022-09-11T11:51:25.864Z,5.07
2022-09-11T11:54:02.247Z,5.55
2022-09-11T11:56:37.740Z,5.47
2022-09-11T11:59:12.555Z,5.60
2022-09-11T12:01:57.890Z,4.35
2022-09-11T12:04:46.140Z,3.90
2022-09-11T12:07:33.543Z,3.83
2022-09-11T12:10:05.347Z,3.83
2022-09-11T12:12:35.032Z,3.90
2022-09-11T12:15:05.440Z,4.43
2022-09-11T12:17:33.526Z,3.45
2022-09-11T12:20:12.412Z,4.07
2022-09-11T12:22:49.815Z,3.55
2022-09-11T12:25:19.141Z,3.15
2022-09-11T12:27:55.878Z,3.30
2022-09-11T12:30:28.053Z,3.05
2022-09-11T12:33:00.328Z,3.60
2022-09-11T12:35:53.520Z,3.80
2022-09-11T12:38:31.744Z,3.97
2022-09-11T12:41:07.731Z,2.95
2022-09-11T12:43:34.168Z,3.53
2022-09-11T12:46:05.332Z,2.90
2022-09-11T12:49:00.337Z,3.53
2022-09-11T12:51:42.368Z,3.50
2022-09-11T12:54:18.547Z,3.38
2022-09-11T12:56:48.650Z,3.47
2022-09-11T12:59:24.402Z,3.42
2022-09-11T13:01:52.213Z,3.13
2022-09-11T13:04:22.515Z,3.28
2022-09-11T13:06:54.952Z,3.33
2022-09-11T13:09:28.756Z,3.28
2022-09-11T13:12:15.260Z,3.60
2022-09-11T13:14:52.564Z,3.63
2022-09-11T13:17:26.433Z,3.40
2022-09-11T13:19:54.859Z,3.20
2022-09-11T13:22:26.905Z,3.90
2022-09-11T13:25:07.605Z,4.00
2022-09-11T13:27:37.589Z,4.32
2022-09-11T13:30:04.601Z,4.15
2022-09-11T13:32:31.370Z,3.53
2022-09-11T13:35:01.974Z,4.45
2022-09-11T13:38:02.786Z,3.70
2022-09-11T13:40:33.507Z,4.10
2022-09-11T13:43:00.517Z,2.90
2022-09-11T13:45:28.628Z,2.85
2022-09-11T13:47:55.340Z,3.20
2022-09-11T13:50:23.402Z,2.67
2022-09-11T13:52:51.596Z,2.67
2022-09-11T13:55:21.190Z,3.13
2022-09-11T13:58:01.370Z,2.72
2022-09-11T14:00:41.127Z,2.78
2022-09-11T14:03:29.366Z,2.80
2022-09-11T14:05:59.389Z,2.25
2022-09-11T14:08:35.370Z,2.63
2022-09-11T14:11:11.423Z,2.10
2022-09-11T14:13:47.166Z,1.98
2022-09-11T14:16:13.733Z,2.15
2022-09-11T14:18:43.339Z,2.63
2022-09-11T14:21:18.681Z,2.20
2022-09-11T14:23:55.992Z,1.88
2022-09-11T14:26:34.003Z,1.67
2022-09-11T14:29:03.100Z,1.90
2022-09-11T14:31:40.486Z,2.28
2022-09-11T14:34:26.819Z,2.70
2022-09-11T14:36:55.664Z,2.45
2022-09-11T14:39:58.148Z,2.35
2022-09-11T14:42:29.495Z,2.30
2022-09-11T14:44:56.202Z,2.25
2022-09-11T14:47:24.889Z,2.80
2022-09-11T14:49:53.752Z,2.53
2022-09-11T14:52:23.050Z,2.50
2022-09-11T14:54:49.718Z,3.33
2022-09-11T14:57:25.287Z,3.15
2022-09-11T14:59:52.571Z,3.10
2022-09-11T15:02:23.565Z,3.58
2022-09-11T15:04:51.158Z,3.00
2022-09-11T15:07:18.918Z,2.75
2022-09-11T15:09:46.585Z,2.53
2022-09-11T15:12:14.061Z,2.90
2022-09-11T15:14:58.120Z,2.90
2022-09-11T15:17:25.692Z,2.90
2022-09-11T15:19:52.864Z,3.03
2022-09-11T15:22:19.730Z,3.35
2022-09-11T15:24:50.119Z,3.00
2022-09-11T15:27:17.301Z,3.10
2022-09-11T15:29:44.118Z,2.33
2022-09-11T15:32:11.522Z,2.83
2022-09-11T15:34:42.114Z,2.85
2022-09-11T15:37:08.704Z,2.90
2022-09-11T15:39:35.451Z,2.40
2022-09-11T15:42:02.198Z,2.50
2022-09-11T15:44:29.136Z,3.25
2022-09-11T15:46:57.272Z,3.13
2022-09-11T15:49:24.416Z,2.95
2022-09-11T15:51:51.805Z,2.25
2022-09-11T15:54:23.322Z,2.20
2022-09-11T15:56:50.859Z,1.67
2022-09-11T15:59:17.688Z,1.67
2022-09-11T16:01:45.151Z,1.35
2022-09-11T16:04:14.520Z,1.80
2022-09-11T16:06:43.014Z,1.38
2022-09-11T16:09:13.698Z,1.50
2022-09-11T16:11:40.984Z,1.48
2022-09-11T16:14:08.403Z,1.08
2022-09-11T16:16:35.412Z,1.10
2022-09-11T16:19:01.867Z,1.23
2022-09-11T16:21:28.850Z,1.20
2022-09-11T16:24:00.625Z,1.40
2022-09-11T16:26:29.138Z,1.20
2022-09-11T16:28:55.687Z,1.42
2022-09-11T16:31:22.884Z,1.48
2022-09-11T16:33:49.970Z,1.63
2022-09-11T16:36:18.590Z,1.23
2022-09-11T16:38:45.843Z,1.30
2022-09-11T16:41:16.116Z,1.10
2022-09-11T16:43:47.233Z,1.42
2022-09-11T16:46:18.807Z,1.33
2022-09-11T16:48:47.635Z,1.40
2022-09-11T16:51:19.184Z,1.30
2022-09-11T16:53:46.672Z,1.23
2022-09-11T16:56:15.686Z,1.40
2022-09-11T16:58:42.916Z,1.40
2022-09-11T17:01:17.490Z,1.70
2022-09-11T17:03:45.628Z,1.70
2022-09-11T17:06:12.905Z,1.55
2022-09-11T17:08:39.741Z,1.50
2022-09-11T17:11:09.591Z,1.85
2022-09-11T17:13:36.161Z,1.40
2022-09-11T17:16:04.740Z,1.40
2022-09-11T17:18:31.578Z,1.63
2022-09-11T17:20:59.386Z,1.65
2022-09-11T17:23:26.187Z,1.73
2022-09-11T17:25:52.751Z,1.42
2022-09-11T17:28:20.127Z,1.48
2022-09-11T17:30:46.918Z,1.38
2022-09-11T17:33:15.942Z,1.58
2022-09-11T17:35:43.903Z,1.60
2022-09-11T17:38:11.234Z,2.05
2022-09-11T17:40:39.230Z,2.03
2022-09-11T17:43:05.847Z,2.47
2022-09-11T17:45:32.355Z,2.17
2022-09-11T17:47:58.942Z,2.20
2022-09-11T17:50:25.703Z,2.17
2022-09-11T17:52:52.224Z,1.58
2022-09-11T17:55:18.836Z,1.73
2022-09-11T17:57:51.952Z,2.20
2022-09-11T18:00:18.629Z,1.90
2022-09-11T18:02:46.623Z,2.17
2022-09-11T18:05:13.110Z,2.15
2022-09-11T18:07:40.114Z,2.00
2022-09-11T18:10:07.921Z,1.77
2022-09-11T18:12:35.495Z,2.03
2022-09-11T18:15:02.438Z,1.90
2022-09-11T18:17:29.417Z,1.55
2022-09-11T18:19:56.176Z,1.65
2022-09-11T18:22:23.293Z,1.75
2022-09-11T18:24:51.155Z,1.65
2022-09-11T18:27:19.862Z,2.03
2022-09-11T18:29:46.527Z,1.83
2022-09-11T18:32:13.039Z,1.70
2022-09-11T18:34:39.488Z,1.67
2022-09-11T18:37:07.645Z,2.00
2022-09-11T18:39:34.256Z,2.03
2022-09-11T18:42:02.062Z,2.42
2022-09-11T18:44:28.881Z,2.20
2022-09-11T18:46:55.667Z,2.35
2022-09-11T18:49:22.797Z,2.50
2022-09-11T18:51:49.279Z,2.38
2022-09-11T18:54:18.420Z,2.90
2022-09-11T18:56:45.334Z,2.15
2022-09-11T18:59:12.671Z,2.88
2022-09-11T19:01:40.225Z,3.10
2022-09-11T19:04:08.513Z,3.05
2022-09-11T19:06:35.021Z,3.05
2022-09-11T19:09:01.889Z,2.47
2022-09-11T19:11:29.950Z,3.15
2022-09-11T19:14:02.026Z,2.63
2022-09-11T19:16:29.028Z,2.83
2022-09-11T19:18:55.598Z,2.25
2022-09-11T19:21:23.584Z,2.70
2022-09-11T19:23:55.917Z,2.85
2022-09-11T19:26:30.972Z,3.05
2022-09-11T19:28:57.965Z,2.85
2022-09-11T19:31:27.121Z,3.30
2022-09-11T19:33:54.827Z,3.47
2022-09-11T19:36:25.760Z,3.50
2022-09-11T19:38:55.166Z,3.40
2022-09-11T19:41:23.856Z,3.40
2022-09-11T19:43:50.879Z,4.00
2022-09-11T19:46:24.243Z,3.88
2022-09-11T19:48:51.956Z,3.65
2022-09-11T19:51:23.032Z,3.70
2022-09-11T19:53:50.736Z,3.38
2022-09-11T19:56:18.349Z,3.83
2022-09-11T19:58:45.176Z,3.97
2022-09-11T20:01:14.362Z,3.55
2022-09-11T20:03:43.216Z,3.55
2022-09-11T20:06:10.552Z,3.08
2022-09-11T20:08:38.037Z,3.35
2022-09-11T20:11:06.825Z,4.15
2022-09-11T20:13:36.018Z,3.80
2022-09-11T20:16:10.711Z,4.47
2022-09-11T20:18:37.240Z,4.50
2022-09-11T20:21:05.818Z,4.65
2022-09-11T20:23:32.563Z,4.32
2022-09-11T20:26:17.585Z,4.60
2022-09-11T20:28:45.521Z,4.35
2022-09-11T20:31:20.134Z,3.80
2022-09-11T20:33:47.698Z,3.60
2022-09-11T20:36:14.269Z,3.85
2022-09-11T20:38:40.756Z,3.65
2022-09-11T20:41:11.075Z,3.13
2022-09-11T20:43:37.896Z,3.35
2022-09-11T20:46:04.786Z,3.10
2022-09-11T20:48:31.796Z,3.45
2022-09-11T20:51:06.494Z,3.05
2022-09-11T20:53:33.201Z,3.55
2022-09-11T20:56:01.260Z,2.92
2022-09-11T20:58:27.763Z,3.00
2022-09-11T21:00:54.332Z,2.85
2022-09-11T21:03:20.872Z,2.83
2022-09-11T21:05:47.320Z,2.47
2022-09-11T21:08:13.837Z,2.22
2022-09-11T21:10:40.335Z,2.70
2022-09-11T21:13:07.054Z,2.10
2022-09-11T21:15:33.551Z,2.65
2022-09-11T21:18:00.039Z,2.28
2022-09-11T21:20:26.577Z,3.10
2022-09-11T21:22:53.092Z,3.10
2022-09-11T21:25:19.616Z,3.05
2022-09-11T21:27:48.071Z,2.70
2022-09-11T21:39:53.780Z,3.17
2022-09-11T21:42:20.275Z,3.50
2022-09-11T21:44:46.755Z,3.10
2022-09-11T21:47:13.317Z,3.17
2022-09-11T21:49:39.777Z,2.85
2022-09-11T21:52:06.274Z,2.92
2022-09-11T21:54:32.782Z,2.60
2022-09-11T21:56:59.237Z,2.92
2022-09-11T21:59:26.043Z,3.08
2022-09-11T22:01:52.653Z,3.03
2022-09-11T22:04:19.257Z,2.60
2022-09-11T22:06:45.708Z,2.70
2022-09-11T22:09:12.210Z,2.20
2022-09-11T22:11:38.663Z,2.47
2022-09-11T22:14:05.831Z,2.60
2022-09-11T22:16:33.216Z,2.40
2022-09-11T22:18:59.700Z,2.30
2022-09-11T22:21:26.209Z,2.55
2022-09-11T22:23:52.777Z,2.15
2022-09-11T22:26:21.162Z,2.55
2022-09-11T22:28:49.922Z,2.17
2022-09-11T22:31:21.915Z,2.30
2022-09-11T22:33:48.623Z,2.05
2022-09-11T22:36:17.933Z,2.20
2022-09-11T22:38:44.498Z,1.92
2022-09-11T22:41:10.998Z,2.28
2022-09-11T22:43:38.068Z,1.70
2022-09-11T22:46:05.230Z,1.75
2022-09-11T22:48:32.137Z,2.00
2022-09-11T22:50:59.485Z,1.50
2022-09-11T22:53:27.343Z,1.73
2022-09-11T22:55:55.124Z,1.40
2022-09-11T22:58:22.227Z,1.80
2022-09-11T23:00:50.399Z,2.13
2022-09-11T23:03:17.312Z,1.80
2022-09-11T23:06:02.592Z,2.10
2022-09-11T23:08:30.468Z,1.70
2022-09-11T23:11:00.912Z,2.05
2022-09-11T23:13:28.376Z,1.48
2022-09-11T23:15:56.371Z,1.50
2022-09-11T23:18:23.736Z,1.70
2022-09-11T23:20:57.812Z,1.58
2022-09-11T23:23:25.233Z,1.42
2022-09-11T23:25:52.052Z,1.23
2022-09-11T23:28:18.770Z,1.33
2022-09-11T23:30:45.362Z,1.05
2022-09-11T23:33:11.815Z,0.93
2022-09-11T23:35:39.540Z,1.20
2022-09-11T23:38:07.428Z,1.20
2022-09-11T23:40:34.621Z,1.20
2022-09-11T23:43:02.166Z,1.00
2022-09-11T23:45:29.222Z,1.30
2022-09-11T23:47:55.812Z,1.05
2022-09-11T23:50:22.348Z,1.00
2022-09-11T23:52:49.092Z,1.10
2022-09-11T23:55:17.447Z,1.17
2022-09-11T23:57:43.953Z,1.20
